createdAt,value
2023-04-02T00:01:18.519Z,99766.91
2023-04-02T00:03:53.821Z,99762.03
2023-04-02T00:06:33.163Z,99774.69
2023-04-02T00:09:22.922Z,99769.53
2023-04-02T00:11:55.936Z,99773.06
2023-04-02T00:14:27.751Z,99777.28
2023-04-02T00:16:58.225Z,99769.53
2023-04-02T00:19:36.059Z,99770.63
2023-04-02T00:22:08.030Z,99767.72
2023-04-02T00:24:38.629Z,99781.31
2023-04-02T00:27:11.225Z,99780.00
2023-04-02T00:29:53.518Z,99777.41
2023-04-02T00:32:31.182Z,99780.34
2023-04-02T00:35:00.620Z,99787.63
2023-04-02T00:37:39.007Z,99779.53
2023-04-02T00:40:21.135Z,99780.34
2023-04-02T00:42:50.392Z,99769.66
2023-04-02T00:45:32.180Z,99774.34
2023-04-02T00:48:13.871Z,99772.59
2023-04-02T00:50:45.130Z,99777.94
2023-04-02T00:53:39.344Z,99786.66
2023-04-02T00:56:16.944Z,99788.94
2023-04-02T00:58:45.958Z,99797.19
2023-04-02T01:01:19.886Z,99783.59
2023-04-02T01:03:58.310Z,99794.59
2023-04-02T01:06:31.205Z,99787.97
2023-04-02T01:09:34.238Z,99783.28
2023-04-02T01:12:25.026Z,99786.31
2023-04-02T01:15:18.813Z,99783.06
2023-04-02T01:18:46.528Z,99788.97
2023-04-02T01:21:42.759Z,99773.91
2023-04-02T01:24:14.856Z,99788.41
2023-04-02T01:26:44.814Z,99779.97
2023-04-02T01:29:33.320Z,99781.84
2023-04-02T01:32:05.612Z,99773.94
2023-04-02T01:34:35.127Z,99768.41
2023-04-02T01:37:11.248Z,99776.47
2023-04-02T01:40:06.773Z,99777.28
2023-04-02T01:42:48.948Z,99777.22
2023-04-02T01:45:21.971Z,99783.03
2023-04-02T01:47:51.603Z,99776.69
2023-04-02T01:50:33.652Z,99782.19
2023-04-02T01:53:07.357Z,99781.06
2023-04-02T01:55:49.935Z,99784.81
2023-04-02T01:58:21.728Z,99793.75
2023-04-02T02:01:14.820Z,99796.00
2023-04-02T02:03:45.121Z,99798.44
2023-04-02T02:06:16.245Z,99799.72
2023-04-02T02:09:00.046Z,99805.22
2023-04-02T02:11:30.761Z,99805.22
2023-04-02T02:14:05.800Z,99807.25
2023-04-02T02:16:42.072Z,99811.50
2023-04-02T02:19:32.951Z,99821.47
2023-04-02T02:22:26.471Z,99826.91
2023-04-02T02:24:56.155Z,99826.59
2023-04-02T02:27:46.966Z,99824.84
2023-04-02T02:30:22.521Z,99825.16
2023-04-02T02:32:58.721Z,99840.88
2023-04-02T02:35:43.121Z,99832.84
2023-04-02T02:38:30.728Z,99839.72
2023-04-02T02:41:12.918Z,99843.63
2023-04-02T02:43:47.710Z,99850.53
2023-04-02T02:46:21.057Z,99850.28
2023-04-02T02:48:51.285Z,99855.47
2023-04-02T02:51:27.721Z,99867.28
2023-04-02T02:54:03.301Z,99858.22
2023-04-02T02:56:37.013Z,99860.00
2023-04-02T02:59:08.740Z,99860.53
2023-04-02T03:01:43.674Z,99865.09
2023-04-02T03:04:12.095Z,99864.91
2023-04-02T03:06:42.261Z,99872.75
2023-04-02T03:09:31.508Z,99868.19
2023-04-02T03:12:25.934Z,99865.88
2023-04-02T03:15:21.789Z,99875.50
2023-04-02T03:18:02.100Z,99880.59
2023-04-02T03:20:55.783Z,99882.88
2023-04-02T03:23:27.542Z,99880.69
2023-04-02T03:26:16.306Z,99895.06
2023-04-02T03:28:52.537Z,99883.13
2023-04-02T03:31:30.066Z,99887.72
2023-04-02T03:34:02.520Z,99878.94
2023-04-02T03:36:38.664Z,99880.59
2023-04-02T03:39:17.924Z,99887.88
2023-04-02T03:42:02.659Z,99890.88
2023-04-02T03:44:30.750Z,99892.00
2023-04-02T03:47:09.251Z,99896.97
2023-04-02T03:49:44.605Z,99893.22
2023-04-02T03:52:18.145Z,99896.34
2023-04-02T03:54:54.233Z,99886.84
2023-04-02T03:57:46.745Z,99890.34
2023-04-02T04:00:39.248Z,99893.81
2023-04-02T04:03:17.853Z,99907.03
2023-04-02T04:05:52.373Z,99902.03
2023-04-02T04:08:29.482Z,99914.03
2023-04-02T04:11:01.507Z,99911.66
2023-04-02T04:14:11.775Z,99921.63
2023-04-02T04:17:14.168Z,99923.88
2023-04-02T04:20:15.272Z,99916.69
2023-04-02T04:22:43.725Z,99930.59
2023-04-02T04:25:34.005Z,99935.47
2023-04-02T04:28:38.567Z,99933.03
2023-04-02T04:31:27.229Z,99927.97
2023-04-02T04:34:03.995Z,99930.22
2023-04-02T04:36:54.577Z,99934.09
2023-04-02T04:39:47.259Z,99942.91
2023-04-02T04:42:24.831Z,99947.25
2023-04-02T04:45:04.007Z,99961.56
2023-04-02T04:47:39.204Z,99966.06
2023-04-02T04:50:19.525Z,99966.66
2023-04-02T04:52:47.616Z,99976.41
2023-04-02T04:55:30.877Z,99982.41
2023-04-02T04:58:24.192Z,99986.34
2023-04-02T05:01:11.530Z,100001.22
2023-04-02T05:03:58.407Z,100004.88
2023-04-02T05:06:51.263Z,100007.72
2023-04-02T05:09:42.315Z,100006.19
2023-04-02T05:12:35.617Z,100019.28
2023-04-02T05:15:31.553Z,100016.31
2023-04-02T05:18:37.613Z,100010.41
2023-04-02T05:21:18.821Z,100020.22
2023-04-02T05:24:25.122Z,100017.59
2023-04-02T05:27:01.108Z,100017.28
2023-04-02T05:29:36.436Z,100027.50
2023-04-02T05:32:14.222Z,100026.66
2023-04-02T05:34:48.963Z,100036.09
2023-04-02T05:37:21.706Z,100029.22
2023-04-02T05:40:03.523Z,100032.91
2023-04-02T05:42:36.028Z,100045.22
2023-04-02T05:45:31.513Z,100059.91
2023-04-02T05:48:08.220Z,100064.72
2023-04-02T05:50:47.969Z,100069.66
2023-04-02T05:53:40.408Z,100078.66
2023-04-02T05:56:16.185Z,100080.50
2023-04-02T05:58:51.856Z,100085.59
2023-04-02T06:01:52.173Z,100093.22
2023-04-02T06:04:57.914Z,100097.84
2023-04-02T06:07:41.989Z,100105.00
2023-04-02T06:10:25.007Z,100115.00
2023-04-02T06:13:06.167Z,100110.44
2023-04-02T06:15:39.087Z,100101.72
2023-04-02T06:18:24.650Z,100109.53
2023-04-02T06:20:53.926Z,100114.91
2023-04-02T06:23:47.056Z,100121.81
2023-04-02T06:26:35.553Z,100133.72
2023-04-02T06:29:25.920Z,100129.56
2023-04-02T06:31:59.581Z,100133.97
2023-04-02T06:34:31.186Z,100137.63
2023-04-02T06:37:30.555Z,100153.31
2023-04-02T06:40:43.261Z,100153.19
2023-04-02T06:43:41.459Z,100166.34
2023-04-02T06:46:32.780Z,100166.84
2023-04-02T06:49:24.817Z,100152.69
2023-04-02T06:52:01.185Z,100141.69
2023-04-02T06:54:32.933Z,100151.59
2023-04-02T06:57:08.089Z,100154.34
2023-04-02T06:59:41.630Z,100162.31
2023-04-02T07:02:28.164Z,100171.00
2023-04-02T07:05:03.952Z,100175.09
2023-04-02T07:07:34.151Z,100187.75
2023-04-02T07:10:07.207Z,100179.44
2023-04-02T07:12:36.012Z,100181.09
2023-04-02T07:15:05.901Z,100199.59
2023-04-02T07:17:34.003Z,100189.19
2023-04-02T07:20:02.237Z,100198.91
2023-04-02T07:22:31.663Z,100197.06
2023-04-02T07:25:15.082Z,100201.97
2023-04-02T07:27:43.010Z,100218.84
2023-04-02T07:30:11.336Z,100211.22
2023-04-02T07:32:39.455Z,100215.34
2023-04-02T07:35:08.475Z,100219.16
2023-04-02T07:37:37.886Z,100225.47
2023-04-02T07:40:09.340Z,100235.22
2023-04-02T07:42:37.278Z,100234.31
2023-04-02T07:45:06.209Z,100239.09
2023-04-02T07:47:34.090Z,100249.72
2023-04-02T07:50:01.996Z,100247.50
2023-04-02T07:52:29.802Z,100249.00
2023-04-02T07:54:57.728Z,100251.56
2023-04-02T07:57:25.754Z,100258.25
2023-04-02T07:59:56.713Z,100258.59
2023-04-02T08:02:26.815Z,100255.03
2023-04-02T08:04:54.826Z,100267.41
2023-04-02T08:07:22.903Z,100266.41
2023-04-02T08:09:50.860Z,100268.25
2023-04-02T08:12:18.704Z,100276.25
2023-04-02T08:14:47.000Z,100272.69
2023-04-02T08:17:14.966Z,100272.00
2023-04-02T08:19:54.245Z,100278.19
2023-04-02T08:22:23.357Z,100286.00
2023-04-02T08:24:51.267Z,100284.75
2023-04-02T08:27:19.200Z,100275.84
2023-04-02T08:29:47.075Z,100287.16
2023-04-02T08:32:16.546Z,100282.19
2023-04-02T08:34:45.620Z,100286.47
2023-04-02T08:37:14.412Z,100296.44
2023-04-02T08:39:42.399Z,100299.53
2023-04-02T08:42:24.771Z,100313.91
2023-04-02T08:45:23.083Z,100331.81
2023-04-02T08:47:56.337Z,100327.00
2023-04-02T08:50:33.022Z,100318.88
2023-04-02T08:53:03.448Z,100322.44
2023-04-02T08:56:06.027Z,100316.78
2023-04-02T08:58:41.596Z,100292.38
2023-04-02T09:01:41.656Z,100287.38
2023-04-02T09:04:20.233Z,100292.50
2023-04-02T09:06:51.626Z,100299.41
2023-04-02T09:09:21.036Z,100307.53
2023-04-02T09:12:04.642Z,100301.59
2023-04-02T09:14:44.749Z,100317.81
2023-04-02T09:17:23.128Z,100315.19
2023-04-02T09:19:53.974Z,100318.16
2023-04-02T09:22:31.835Z,100315.28
2023-04-02T09:25:02.903Z,100313.78
2023-04-02T09:27:34.694Z,100324.56
2023-04-02T09:30:58.655Z,100330.53
2023-04-02T09:33:44.370Z,100319.09
2023-04-02T09:36:38.082Z,100321.03
2023-04-02T09:39:17.923Z,100341.31
2023-04-02T09:41:55.803Z,100337.72
2023-04-02T09:44:40.206Z,100326.16
2023-04-02T09:47:25.979Z,100333.88
2023-04-02T09:50:15.739Z,100329.56
2023-04-02T09:52:49.289Z,100334.63
2023-04-02T09:55:22.511Z,100344.13
2023-04-02T09:57:52.399Z,100336.38
2023-04-02T10:00:32.585Z,100341.81
2023-04-02T10:03:30.900Z,100327.69
2023-04-02T10:06:18.098Z,100350.78
2023-04-02T10:08:48.867Z,100331.06
2023-04-02T10:11:46.697Z,100327.59
2023-04-02T10:14:37.061Z,100317.81
2023-04-02T10:17:20.294Z,100320.13
2023-04-02T10:19:52.640Z,100316.56
2023-04-02T10:22:22.762Z,100315.00
2023-04-02T10:24:51.408Z,100320.50
2023-04-02T10:27:41.908Z,100309.25
2023-04-02T10:30:28.895Z,100309.69
2023-04-02T10:33:20.453Z,100315.41
2023-04-02T10:36:02.044Z,100320.28
2023-04-02T10:38:59.053Z,100322.50
2023-04-02T10:41:30.888Z,100313.66
2023-04-02T10:44:16.718Z,100317.47
2023-04-02T10:47:12.455Z,100329.59
2023-04-02T10:50:14.758Z,100308.53
2023-04-02T10:52:56.453Z,100311.44
2023-04-02T10:55:29.273Z,100314.50
2023-04-02T10:58:06.290Z,100299.72
2023-04-02T11:00:46.309Z,100308.94
2023-04-02T11:03:30.343Z,100309.94
2023-04-02T11:06:02.575Z,100321.69
2023-04-02T11:08:43.578Z,100326.16
2023-04-02T11:11:23.665Z,100334.88
2023-04-02T11:14:13.004Z,100334.03
2023-04-02T11:16:44.428Z,100335.31
2023-04-02T11:19:18.738Z,100345.41
2023-04-02T11:21:57.941Z,100358.03
2023-04-02T11:24:37.823Z,100368.63
2023-04-02T11:27:14.879Z,100372.13
2023-04-02T11:29:47.119Z,100375.19
2023-04-02T11:32:22.942Z,100377.19
2023-04-02T11:35:05.143Z,100387.75
2023-04-02T11:37:45.059Z,100387.38
2023-04-02T11:40:16.675Z,100391.59
2023-04-02T11:43:01.266Z,100412.66
2023-04-02T11:45:33.750Z,100429.94
2023-04-02T11:48:17.664Z,100407.38
2023-04-02T11:50:46.589Z,100406.69
2023-04-02T11:53:21.281Z,100413.19
2023-04-02T11:56:04.221Z,100424.94
2023-04-02T11:58:50.204Z,100419.31
2023-04-02T12:01:31.820Z,100431.91
2023-04-02T12:04:31.096Z,100416.28
2023-04-02T12:07:18.984Z,100397.56
2023-04-02T12:09:59.525Z,100401.16
2023-04-02T12:12:33.381Z,100398.28
2023-04-02T12:15:01.630Z,100398.16
2023-04-02T12:17:37.468Z,100402.34
2023-04-02T12:20:28.965Z,100375.72
2023-04-02T12:22:58.664Z,100371.94
2023-04-02T12:25:40.153Z,100368.31
2023-04-02T12:28:12.328Z,100356.25
2023-04-02T12:30:41.758Z,100339.81
2023-04-02T12:33:33.932Z,100333.25
2023-04-02T12:36:04.496Z,100341.38
2023-04-02T12:38:37.040Z,100335.97
2023-04-02T12:41:19.307Z,100324.53
2023-04-02T12:43:47.549Z,100310.88
2023-04-02T12:46:15.739Z,100312.22
2023-04-02T12:48:43.958Z,100310.53
2023-04-02T12:51:12.103Z,100303.38
2023-04-02T12:53:42.755Z,100315.19
2023-04-02T12:56:20.196Z,100311.94
2023-04-02T12:58:59.376Z,100309.31
2023-04-02T13:01:30.944Z,100304.56
2023-04-02T13:04:05.048Z,100294.09
2023-04-02T13:06:33.443Z,100297.59
2023-04-02T13:09:04.141Z,100294.84
2023-04-02T13:11:41.941Z,100303.03
2023-04-02T13:14:20.141Z,100303.47
2023-04-02T13:16:50.839Z,100292.25
2023-04-02T13:19:26.129Z,100286.47
2023-04-02T13:21:56.038Z,100284.81
2023-04-02T13:24:31.683Z,100265.06
2023-04-02T13:27:02.051Z,100282.63
2023-04-02T13:29:32.212Z,100279.94
2023-04-02T13:32:02.563Z,100272.72
2023-04-02T13:34:31.208Z,100257.09
2023-04-02T13:37:00.062Z,100265.19
2023-04-02T13:39:30.412Z,100262.88
2023-04-02T13:42:00.579Z,100262.56
2023-04-02T13:44:31.791Z,100263.03
2023-04-02T13:47:00.877Z,100265.25
2023-04-02T13:49:29.529Z,100267.16
2023-04-02T13:52:05.932Z,100258.31
2023-04-02T13:54:43.461Z,100264.63
2023-04-02T14:27:57.119Z,100269.50
2023-04-02T14:30:46.924Z,100259.47
2023-04-02T14:33:30.264Z,100256.94
2023-04-02T14:36:09.063Z,100256.16
2023-04-02T14:38:44.905Z,100259.66
2023-04-02T14:41:30.338Z,100254.13
2023-04-02T14:44:07.560Z,100258.31
2023-04-02T14:46:38.269Z,100258.63
2023-04-02T14:49:22.714Z,100263.56
2023-04-02T14:52:10.571Z,100259.66
2023-04-02T14:55:03.469Z,100255.03
2023-04-02T14:57:52.807Z,100257.28
2023-04-02T15:00:41.428Z,100254.25
2023-04-02T15:03:18.547Z,100255.13
2023-04-02T15:05:48.992Z,100254.41
2023-04-02T15:08:22.246Z,100263.03
2023-04-02T15:11:02.993Z,100263.63
2023-04-02T15:13:40.134Z,100261.44
2023-04-02T15:16:21.349Z,100258.53
2023-04-02T15:19:01.489Z,100254.97
2023-04-02T15:21:57.505Z,100257.66
2023-04-02T15:24:59.810Z,100250.97
2023-04-02T15:28:09.848Z,100259.16
2023-04-02T15:30:43.356Z,100259.41
2023-04-02T15:33:30.002Z,100250.97
2023-04-02T15:36:21.665Z,100250.75
2023-04-02T15:38:56.661Z,100248.31
2023-04-02T15:41:36.372Z,100251.69
2023-04-02T15:44:15.242Z,100256.88
2023-04-02T15:46:46.636Z,100253.53
2023-04-02T15:49:32.877Z,100246.25
2023-04-02T15:52:22.630Z,100249.44
2023-04-02T15:55:02.636Z,100255.66
2023-04-02T15:58:05.735Z,100268.63
2023-04-02T16:00:53.932Z,100249.44
2023-04-02T16:03:57.212Z,100263.31
2023-04-02T16:06:53.437Z,100260.06
2023-04-02T16:09:31.244Z,100265.13
2023-04-02T16:12:11.604Z,100267.63
2023-04-02T16:14:41.601Z,100268.06
2023-04-02T16:17:25.704Z,100273.78
2023-04-02T16:20:05.715Z,100269.63
2023-04-02T16:22:38.023Z,100272.06
2023-04-02T16:25:19.741Z,100267.00
2023-04-02T16:27:59.835Z,100272.25
2023-04-02T16:30:28.510Z,100284.97
2023-04-02T16:33:23.490Z,100285.22
2023-04-02T16:36:03.125Z,100287.09
2023-04-02T16:38:39.592Z,100287.63
2023-04-02T16:41:31.789Z,100294.78
2023-04-02T16:44:18.702Z,100298.28
2023-04-02T16:47:12.174Z,100299.13
2023-04-02T16:49:53.183Z,100295.91
2023-04-02T16:52:46.408Z,100306.50
2023-04-02T16:55:33.011Z,100303.97
2023-04-02T16:58:28.132Z,100302.13
2023-04-02T17:01:05.266Z,100305.25
2023-04-02T17:03:39.582Z,100304.66
2023-04-02T17:06:13.693Z,100309.53
2023-04-02T17:08:50.796Z,100311.66
2023-04-02T17:11:41.130Z,100311.22
2023-04-02T17:14:38.737Z,100309.28
2023-04-02T17:17:18.182Z,100312.22
2023-04-02T17:19:49.004Z,100300.03
2023-04-02T17:22:22.555Z,100309.00
2023-04-02T17:24:59.149Z,100302.69
2023-04-02T17:27:37.881Z,100317.28
2023-04-02T17:30:17.306Z,100318.28
2023-04-02T17:32:45.686Z,100317.50
2023-04-02T17:35:33.495Z,100313.75
2023-04-02T17:38:13.421Z,100325.47
2023-04-02T17:41:08.503Z,100326.78
2023-04-02T17:43:57.792Z,100331.66
2023-04-02T17:46:48.748Z,100331.81
2023-04-02T17:49:28.893Z,100349.84
2023-04-02T17:52:24.320Z,100348.53
2023-04-02T17:55:05.349Z,100343.81
2023-04-02T17:57:52.341Z,100348.22
2023-04-02T18:00:37.471Z,100345.75
2023-04-02T18:03:49.619Z,100357.44
2023-04-02T18:06:25.433Z,100354.66
2023-04-02T18:09:31.181Z,100377.56
2023-04-02T18:12:01.958Z,100378.66
2023-04-02T18:14:56.432Z,100382.97
2023-04-02T18:17:33.028Z,100387.28
2023-04-02T18:20:20.867Z,100392.25
2023-04-02T18:23:06.444Z,100393.94
2023-04-02T18:26:00.910Z,100401.19
2023-04-02T18:28:44.162Z,100409.09
2023-04-02T18:31:28.635Z,100421.50
2023-04-02T18:34:11.775Z,100424.97
2023-04-02T18:37:06.743Z,100417.25
2023-04-02T18:39:41.281Z,100414.31
2023-04-02T18:42:34.657Z,100422.94
2023-04-02T18:45:33.033Z,100420.69
2023-04-02T18:48:22.515Z,100429.59
2023-04-02T18:50:50.452Z,100427.97
2023-04-02T18:53:23.204Z,100441.34
2023-04-02T18:56:07.183Z,100433.72
2023-04-02T18:58:43.042Z,100438.28
2023-04-02T19:01:16.296Z,100440.22
2023-04-02T19:03:50.638Z,100451.06
2023-04-02T19:06:31.145Z,100454.31
2023-04-02T19:09:08.200Z,100450.91
2023-04-02T19:11:36.569Z,100458.69
2023-04-02T19:14:17.504Z,100451.78
2023-04-02T19:16:45.616Z,100458.00
2023-04-02T19:19:23.197Z,100463.31
2023-04-02T19:21:51.823Z,100465.34
2023-04-02T19:24:56.221Z,100484.03
2023-04-02T19:27:48.077Z,100491.16
2023-04-02T19:30:39.147Z,100470.69
2023-04-02T19:33:25.907Z,100467.72
2023-04-02T19:36:01.792Z,100467.72
2023-04-02T19:38:41.779Z,100476.25
2023-04-02T19:41:09.769Z,100478.34
2023-04-02T19:43:37.694Z,100489.63
2023-04-02T19:46:06.505Z,100491.44
2023-04-02T19:48:48.402Z,100488.72
2023-04-02T19:51:16.560Z,100501.25
2023-04-02T19:53:44.574Z,100496.66
2023-04-02T19:56:12.630Z,100515.41
2023-04-02T19:58:40.610Z,100513.00
2023-04-02T20:01:08.986Z,100513.19
2023-04-02T20:03:36.992Z,100511.97
2023-04-02T20:06:05.644Z,100515.84
2023-04-02T20:08:33.772Z,100508.09
2023-04-02T20:11:01.830Z,100510.16
2023-04-02T20:13:29.782Z,100510.34
2023-04-02T20:16:02.230Z,100528.97
2023-04-02T20:18:32.305Z,100535.22
2023-04-02T20:21:04.797Z,100540.72
2023-04-02T20:23:34.045Z,100519.31
2023-04-02T20:26:04.089Z,100512.59
2023-04-02T20:28:32.371Z,100514.41
2023-04-02T20:31:18.913Z,100509.78
2023-04-02T20:33:48.250Z,100494.13
2023-04-02T20:36:18.140Z,100497.59
2023-04-02T20:38:46.110Z,100511.53
2023-04-02T20:41:16.929Z,100517.00
2023-04-02T20:43:45.225Z,100523.41
2023-04-02T20:46:13.658Z,100544.28
2023-04-02T20:48:41.841Z,100566.97
2023-04-02T20:51:13.392Z,100564.16
2023-04-02T20:53:42.397Z,100546.75
2023-04-02T20:56:17.071Z,100536.06
2023-04-02T20:58:45.208Z,100511.41
2023-04-02T21:01:27.363Z,100506.91
2023-04-02T21:04:02.978Z,100541.88
2023-04-02T21:06:33.988Z,100536.56
2023-04-02T21:09:07.032Z,100523.44
2023-04-02T21:11:37.568Z,100526.31
2023-04-02T21:14:05.769Z,100535.41
2023-04-02T21:16:35.871Z,100544.94
2023-04-02T21:19:07.507Z,100534.44
2023-04-02T21:21:37.528Z,100532.91
2023-04-02T21:24:08.132Z,100522.53
2023-04-02T21:26:39.342Z,100541.00
2023-04-02T21:29:07.498Z,100539.44
2023-04-02T21:31:41.813Z,100536.41
2023-04-02T21:34:14.485Z,100532.94
2023-04-02T21:36:47.577Z,100535.38
2023-04-02T21:39:21.767Z,100532.88
2023-04-02T21:41:51.113Z,100529.91
2023-04-02T21:44:21.982Z,100516.88
2023-04-02T21:46:54.108Z,100506.88
2023-04-02T21:49:26.314Z,100517.59
2023-04-02T21:51:54.313Z,100524.28
2023-04-02T21:54:22.368Z,100525.59
2023-04-02T21:56:50.641Z,100522.16
2023-04-02T21:59:21.123Z,100526.53
2023-04-02T22:01:51.228Z,100534.78
2023-04-02T22:04:24.544Z,100544.75
2023-04-02T22:06:53.432Z,100547.25
2023-04-02T22:09:23.911Z,100538.00
2023-04-02T22:11:55.601Z,100534.81
2023-04-02T22:14:23.724Z,100534.53
2023-04-02T22:16:52.349Z,100526.94
2023-04-02T22:19:21.133Z,100518.72
2023-04-02T22:21:49.173Z,100520.06
2023-04-02T22:24:25.257Z,100524.09
2023-04-02T22:26:53.843Z,100525.22
2023-04-02T22:29:21.884Z,100524.44
2023-04-02T22:31:49.847Z,100516.50
2023-04-02T22:34:17.733Z,100512.97
2023-04-02T22:36:45.533Z,100515.31
2023-04-02T22:39:13.495Z,100513.38
2023-04-02T22:41:41.462Z,100522.19
2023-04-02T22:44:14.357Z,100512.53
2023-04-02T22:46:42.393Z,100511.50
2023-04-02T22:49:11.864Z,100517.81
2023-04-02T22:51:39.794Z,100517.28
2023-04-02T22:54:07.693Z,100513.56
2023-04-02T22:56:37.691Z,100521.84
2023-04-02T22:59:06.004Z,100516.41
2023-04-02T23:01:36.054Z,100513.00
2023-04-02T23:04:05.459Z,100514.16
2023-04-02T23:06:33.753Z,100523.28
2023-04-02T23:09:01.700Z,100517.31
2023-04-02T23:11:29.662Z,100519.88
2023-04-02T23:13:58.317Z,100531.91
2023-04-02T23:16:28.019Z,100527.31
2023-04-02T23:18:56.575Z,100520.75
2023-04-02T23:21:26.211Z,100516.97
2023-04-02T23:23:54.287Z,100525.75
2023-04-02T23:26:24.938Z,100526.03
2023-04-02T23:28:52.865Z,100526.63
2023-04-02T23:31:23.013Z,100537.94
2023-04-02T23:33:52.474Z,100526.50
2023-04-02T23:36:24.794Z,100530.69
2023-04-02T23:38:55.610Z,100531.72
2023-04-02T23:41:27.106Z,100526.88
2023-04-02T23:43:56.374Z,100529.72
2023-04-02T23:46:25.330Z,100523.56
2023-04-02T23:48:53.894Z,100516.78
2023-04-02T23:51:22.786Z,100517.31
2023-04-02T23:53:51.802Z,100513.13
2023-04-02T23:56:20.191Z,100513.09
2023-04-02T23:58:48.899Z,100521.81
